Time;durP1;ratioP1;P1;durP2;ratioP2;P2;SDS_P1;SDS_P2;PMS_P1;PMS_P2;Temp;Humidity;BMP_temperature;BMP_pressure;BME280_temperature;BME280_humidity;BME280_pressure;Samples;Min_cycle;Max_cycle;Signal;HPM_P1;HPM_P2
2021/06/17 00:01:48;;;;;;;5.25;3.88;;;;;;;19.74;56.36;96095.59;4994183;28;20046;-76
2021/06/17 00:04:15;;;;;;;6.90;4.00;;;;;;;19.67;56.42;96104.59;4993449;28;20042;-76
2021/06/17 00:06:41;;;;;;;8.80;4.85;;;;;;;19.62;56.02;96101.41;4994152;28;20064;-76
2021/06/17 00:09:08;;;;;;;7.07;4.15;;;;;;;19.59;55.83;96102.16;5007570;28;20073;-76
2021/06/17 00:11:35;;;;;;;6.53;4.05;;;;;;;19.54;56.48;96101.34;5013433;28;20046;-77
2021/06/17 00:14:01;;;;;;;4.70;3.78;;;;;;;19.52;56.96;96102.88;5013483;28;20042;-76
2021/06/17 00:16:29;;;;;;;5.88;4.03;;;;;;;19.49;56.84;96104.44;5013017;28;20038;-76
2021/06/17 00:18:56;;;;;;;6.47;4.03;;;;;;;19.45;57.64;96102.84;5013282;28;20057;-77
2021/06/17 00:21:23;;;;;;;5.20;3.80;;;;;;;19.43;57.79;96105.97;5012896;28;20069;-76
2021/06/17 00:23:49;;;;;;;6.57;4.10;;;;;;;19.40;58.36;96101.22;5013241;28;20049;-76
2021/06/17 00:26:16;;;;;;;6.75;4.25;;;;;;;19.36;58.02;96105.91;5012723;28;20052;-77
2021/06/17 00:28:42;;;;;;;5.63;3.90;;;;;;;19.34;58.14;96102.75;5013078;28;20072;-76
2021/06/17 00:31:08;;;;;;;7.10;4.20;;;;;;;19.30;58.17;96104.66;5012573;28;20066;-76
2021/06/17 00:33:36;;;;;;;6.18;4.18;;;;;;;19.28;58.72;96095.97;5013082;28;20056;-77
2021/06/17 00:36:03;;;;;;;6.65;4.70;;;;;;;19.26;58.80;96095.56;5012645;28;20053;-76
2021/06/17 00:38:30;;;;;;;7.78;4.45;;;;;;;19.22;59.24;96095.53;5012933;28;20421;-77
2021/06/17 00:40:57;;;;;;;7.00;4.18;;;;;;;19.17;59.19;96093.13;5013004;28;20555;-77
2021/06/17 00:43:24;;;;;;;6.28;4.30;;;;;;;19.14;59.50;96090.31;5012460;28;20042;-76
2021/06/17 00:45:51;;;;;;;6.55;4.68;;;;;;;19.09;59.33;96098.94;5013039;28;20045;-76
2021/06/17 00:48:18;;;;;;;7.35;4.57;;;;;;;19.03;59.60;96104.81;5012457;28;20096;-76
2021/06/17 00:50:49;;;;;;;7.07;4.78;;;;;;;18.99;59.88;96090.19;5012821;28;20057;-76
2021/06/17 00:53:17;;;;;;;6.18;4.47;;;;;;;18.94;59.80;96090.50;5012334;28;20042;-76
2021/06/17 00:55:47;;;;;;;7.82;5.10;;;;;;;18.92;59.67;96098.38;5012612;28;20054;-77
2021/06/17 00:58:14;;;;;;;8.00;4.82;;;;;;;18.85;60.06;96092.81;5012368;28;20042;-76
2021/06/17 01:00:41;;;;;;;9.18;4.90;;;;;;;18.83;60.40;96095.13;5012764;28;20046;-78
2021/06/17 01:03:08;;;;;;;6.00;4.65;;;;;;;18.82;60.25;96090.78;5011911;28;20046;-76
2021/06/17 01:05:35;;;;;;;6.75;4.38;;;;;;;18.82;60.20;96093.56;4995358;28;20129;-75
2021/06/17 01:08:17;;;;;;;8.45;5.07;;;;;;;18.79;59.89;96088.78;5012526;28;20547;-76
2021/06/17 01:10:52;;;;;;;8.85;4.90;;;;;;;18.73;60.47;96090.28;5012171;28;20049;-79
2021/06/17 01:13:24;;;;;;;8.13;4.90;;;;;;;18.67;61.19;96081.53;5012264;28;20394;-76
2021/06/17 01:16:02;;;;;;;8.25;4.90;;;;;;;18.61;61.22;96087.75;5012364;28;20058;-76
2021/06/17 01:18:29;;;;;;;9.07;5.20;;;;;;;18.58;61.44;96089.28;5012160;28;20070;-76
2021/06/17 01:20:58;;;;;;;9.55;5.38;;;;;;;18.55;61.71;96081.00;5011894;28;20038;-78
2021/06/17 01:23:57;;;;;;;8.93;4.85;;;;;;;18.51;61.66;96084.50;5011737;28;20045;-76
2021/06/17 01:26:38;;;;;;;10.93;5.30;;;;;;;18.49;62.21;96075.81;4991270;28;20041;-76
2021/06/17 01:29:11;;;;;;;9.27;5.03;;;;;;;18.47;61.90;96078.16;5011604;28;20049;-76
2021/06/17 01:31:38;;;;;;;10.10;5.10;;;;;;;18.49;61.44;96070.31;5012278;28;20041;-76
2021/06/17 01:34:04;;;;;;;6.85;4.80;;;;;;;18.47;61.84;96060.81;5011510;28;20042;-76
2021/06/17 01:36:36;;;;;;;11.88;4.63;;;;;;;18.46;61.52;96070.25;5011975;28;20043;-76
2021/06/17 01:39:05;;;;;;;8.50;4.68;;;;;;;18.42;62.04;96069.41;5011327;28;20500;-77
2021/06/17 01:41:37;;;;;;;7.32;5.10;;;;;;;18.39;62.13;96064.66;5012047;28;20038;-76
2021/06/17 01:44:07;;;;;;;7.65;4.70;;;;;;;18.37;62.59;96062.25;5011646;28;20038;-77
2021/06/17 01:46:34;;;;;;;7.93;4.75;;;;;;;18.34;62.86;96060.28;5012054;28;20632;-78
2021/06/17 01:49:02;;;;;;;8.00;5.00;;;;;;;18.31;62.28;96058.25;5011796;28;20042;-76
2021/06/17 01:51:30;;;;;;;9.07;5.22;;;;;;;18.26;62.78;96067.66;5011470;28;20048;-76
2021/06/17 01:53:56;;;;;;;6.38;4.85;;;;;;;18.24;62.92;96069.22;5011696;28;20042;-76
2021/06/17 01:56:25;;;;;;;6.88;4.70;;;;;;;18.22;63.00;96066.84;5011144;28;20050;-76
2021/06/17 01:58:54;;;;;;;8.80;5.20;;;;;;;18.23;62.55;96064.88;5011499;28;20424;-77
2021/06/17 02:01:25;;;;;;;6.15;4.57;;;;;;;18.23;62.70;96062.09;5011386;28;20044;-77
2021/06/17 02:03:53;;;;;;;8.88;5.03;;;;;;;18.24;62.58;96063.69;5011216;28;20492;-81
2021/06/17 02:06:20;;;;;;;6.55;4.45;;;;;;;18.24;62.01;96063.69;5010790;28;20050;-76
2021/06/17 02:08:50;;;;;;;9.60;4.80;;;;;;;18.17;62.23;96069.13;5009378;28;20053;-76
2021/06/17 02:11:24;;;;;;;9.13;4.78;;;;;;;18.11;62.63;96054.06;5010981;28;20042;-76
2021/06/17 02:13:53;;;;;;;9.30;4.70;;;;;;;18.09;63.31;96050.91;5011219;28;20416;-78
2021/06/17 02:16:21;;;;;;;6.97;4.55;;;;;;;18.08;63.29;96046.56;5010804;28;20057;-76
2021/06/17 02:18:50;;;;;;;8.30;5.05;;;;;;;18.05;63.22;96055.56;5011198;28;20053;-76
2021/06/17 02:21:17;;;;;;;8.00;4.82;;;;;;;18.02;63.05;96050.81;5010903;28;20377;-76
2021/06/17 02:23:49;;;;;;;6.55;5.05;;;;;;;18.01;63.04;96050.03;5011374;28;20053;-76
2021/06/17 02:26:17;;;;;;;7.18;4.85;;;;;;;18.03;62.80;96046.88;5010907;28;20133;-76
2021/06/17 02:28:48;;;;;;;9.07;5.13;;;;;;;18.00;63.05;96049.19;5011013;28;20057;-76
2021/06/17 02:31:18;;;;;;;9.00;4.93;;;;;;;17.99;63.06;96047.63;5009701;28;20038;-76
2021/06/17 02:33:49;;;;;;;7.35;4.70;;;;;;;18.00;62.91;96048.41;5011283;28;20064;-76
2021/06/17 02:36:17;;;;;;;6.10;4.72;;;;;;;17.99;62.13;96046.84;5010573;28;20049;-76
2021/06/17 02:38:46;;;;;;;7.18;5.03;;;;;;;17.97;62.32;96038.16;5010955;28;20060;-75
2021/06/17 02:41:17;;;;;;;7.75;5.00;;;;;;;17.96;62.03;96029.09;5010528;28;20053;-76
2021/06/17 02:43:47;;;;;;;10.63;5.40;;;;;;;17.95;62.83;96035.75;5010908;28;20505;-75
2021/06/17 02:46:13;;;;;;;8.15;5.60;;;;;;;17.93;62.97;96032.59;5010553;28;20050;-76
2021/06/17 02:48:40;;;;;;;8.43;5.38;;;;;;;17.89;62.37;96042.75;5010947;28;20239;-76
2021/06/17 02:51:12;;;;;;;6.45;4.75;;;;;;;17.84;62.64;96028.53;5010460;28;20042;-78
2021/06/17 02:57:08;;;;;;;9.20;6.20;;;;;;;17.71;63.81;96030.69;5007891;28;20049;-76
2021/06/17 02:59:49;;;;;;;9.63;5.60;;;;;;;17.70;63.19;96034.63;5010927;28;20042;-77
2021/06/17 03:02:20;;;;;;;9.50;5.47;;;;;;;17.67;63.26;96035.34;5010521;28;20053;-76
2021/06/17 03:04:50;;;;;;;9.70;5.18;;;;;;;17.62;63.39;96033.69;5010870;28;20042;-76
2021/06/17 03:07:24;;;;;;;10.43;6.03;;;;;;;17.57;63.74;96034.03;5010409;28;20050;-76
2021/06/17 03:09:56;;;;;;;11.32;5.45;;;;;;;17.58;63.68;96038.34;5010794;28;20057;-76
2021/06/17 03:12:26;;;;;;;7.72;4.35;;;;;;;17.61;63.82;96032.13;5010433;28;20042;-76
2021/06/17 03:14:55;;;;;;;7.85;5.32;;;;;;;17.61;64.01;96025.81;5010764;28;20544;-76
2021/06/17 03:17:24;;;;;;;11.65;5.68;;;;;;;17.60;63.79;96027.00;5010189;28;20054;-75
2021/06/17 03:19:54;;;;;;;10.18;5.72;;;;;;;17.60;63.53;96030.53;5010799;28;20056;-76
2021/06/17 03:22:24;;;;;;;10.45;6.40;;;;;;;17.61;63.37;96025.81;5010014;28;20050;-76
2021/06/17 03:24:52;;;;;;;12.13;6.25;;;;;;;17.59;63.21;96022.63;5010674;28;20045;-76
2021/06/17 03:27:20;;;;;;;10.40;5.80;;;;;;;17.57;63.52;96019.47;5009567;28;20052;-76
2021/06/17 03:29:50;;;;;;;19.55;6.80;;;;;;;17.57;63.42;96025.75;5010863;28;20042;-76
2021/06/17 03:32:18;;;;;;;10.43;6.43;;;;;;;17.55;63.34;96016.28;5010181;28;20038;-76
2021/06/17 03:34:47;;;;;;;9.95;6.25;;;;;;;17.54;63.46;96020.19;5010848;28;20076;-76
2021/06/17 03:37:16;;;;;;;10.98;6.03;;;;;;;17.53;63.45;96030.41;5010037;28;20050;-77
2021/06/17 03:39:46;;;;;;;9.40;6.10;;;;;;;17.48;64.06;96027.97;5010410;28;20500;-77
2021/06/17 03:42:14;;;;;;;9.43;5.85;;;;;;;17.47;64.53;96029.94;5010206;28;20046;-76
2021/06/17 03:44:43;;;;;;;11.65;6.07;;;;;;;17.49;64.27;96032.34;5014165;28;20500;-77
2021/06/17 03:47:11;;;;;;;12.68;6.45;;;;;;;17.49;64.07;96029.59;5013485;28;20049;-76
2021/06/17 03:49:40;;;;;;;9.95;6.55;;;;;;;17.50;64.07;96031.16;5013990;28;20049;-76
2021/06/17 03:52:08;;;;;;;10.70;6.53;;;;;;;17.51;64.33;96031.97;5013318;28;20064;-76
2021/06/17 03:54:35;;;;;;;12.23;6.53;;;;;;;17.52;64.59;96037.09;5013865;28;20042;-76
2021/06/17 03:57:06;;;;;;;8.90;6.72;;;;;;;17.53;64.49;96035.91;5012802;28;20496;-75
2021/06/17 03:59:38;;;;;;;13.45;7.05;;;;;;;17.57;64.68;96031.25;5013183;28;20037;-76
2021/06/17 04:02:05;;;;;;;13.40;7.00;;;;;;;17.60;64.16;96041.56;5013332;28;20050;-76
2021/06/17 04:04:32;;;;;;;10.95;6.95;;;;;;;17.60;64.61;96044.31;5013467;28;20049;-76
2021/06/17 04:07:00;;;;;;;11.95;7.30;;;;;;;17.63;64.55;96042.75;5013707;28;20423;-77
2021/06/17 04:09:30;;;;;;;11.65;6.13;;;;;;;17.65;64.45;96043.19;5013096;28;20050;-77
2021/06/17 04:11:58;;;;;;;11.38;6.55;;;;;;;17.69;64.28;96041.25;5013524;28;20046;-76
2021/06/17 04:14:28;;;;;;;23.35;7.50;;;;;;;17.72;64.93;96043.28;5013079;28;20042;-76
2021/06/17 04:16:55;;;;;;;12.05;6.80;;;;;;;17.76;64.83;96046.91;5013240;28;20042;-75
2021/06/17 04:19:25;;;;;;;12.00;7.00;;;;;;;17.79;64.60;96040.66;5013027;28;20080;-76
2021/06/17 04:21:55;;;;;;;16.00;7.15;;;;;;;17.84;64.65;96050.56;5013187;28;20060;-78
2021/06/17 04:24:23;;;;;;;10.90;6.47;;;;;;;17.88;65.05;96051.41;5012777;28;20045;-76
2021/06/17 04:26:52;;;;;;;16.70;6.93;;;;;;;17.90;65.42;96055.38;5012847;28;20046;-75
2021/06/17 04:29:19;;;;;;;10.95;6.57;;;;;;;17.92;65.02;96053.03;5002007;28;20042;-75
2021/06/17 04:31:49;;;;;;;13.32;6.15;;;;;;;17.95;64.47;96063.31;5013137;28;20042;-76
2021/06/17 04:34:16;;;;;;;11.00;6.10;;;;;;;17.99;63.47;96066.91;5012697;28;20049;-76
2021/06/17 04:36:44;;;;;;;11.52;7.35;;;;;;;18.05;64.39;96075.63;5012967;28;20053;-76
2021/06/17 04:39:11;;;;;;;12.27;6.65;;;;;;;18.07;64.24;96069.78;5012627;28;20046;-76
2021/06/17 04:41:38;;;;;;;12.60;6.82;;;;;;;18.07;65.03;96075.28;5012911;28;20085;-75
2021/06/17 04:44:06;;;;;;;9.63;6.40;;;;;;;18.05;63.88;96072.09;5012653;28;20046;-77
2021/06/17 04:46:35;;;;;;;10.98;6.75;;;;;;;18.04;64.20;96070.50;5012920;28;20053;-78
2021/06/17 04:49:04;;;;;;;11.00;7.30;;;;;;;18.03;64.68;96071.69;5012823;28;20053;-78
2021/06/17 04:51:35;;;;;;;13.85;8.73;;;;;;;18.03;64.86;96074.44;5012528;28;20037;-77
2021/06/17 04:54:02;;;;;;;16.23;8.23;;;;;;;18.04;65.11;96079.56;5011619;28;20074;-76
2021/06/17 04:56:28;;;;;;;13.05;10.00;;;;;;;18.08;65.22;96083.16;5012509;28;20045;-78
2021/06/17 04:58:55;;;;;;;13.13;10.02;;;;;;;18.13;64.74;96090.31;5012171;28;20504;-77
2021/06/17 05:01:21;;;;;;;12.23;9.35;;;;;;;18.16;64.65;96084.03;5012188;28;20057;-78
2021/06/17 05:03:49;;;;;;;11.10;9.02;;;;;;;18.19;64.73;96088.81;5012524;28;20457;-75
2021/06/17 05:06:19;;;;;;;15.00;8.77;;;;;;;18.23;65.33;96089.66;5012232;28;20460;-77
2021/06/17 05:11:30;;;;;;;11.38;8.93;;;;;;;18.34;64.63;96090.59;5012319;28;20519;-76
2021/06/17 05:13:56;;;;;;;15.45;8.65;;;;;;;18.40;64.51;96089.09;5012284;28;20045;-76
2021/06/17 05:16:26;;;;;;;17.55;8.77;;;;;;;18.41;64.95;96092.63;5011496;28;20052;-75
2021/06/17 05:18:52;;;;;;;13.70;9.15;;;;;;;18.49;64.26;96092.38;5012212;28;20061;-75
2021/06/17 05:21:20;;;;;;;12.57;8.88;;;;;;;18.54;63.97;96087.69;5011703;28;20511;-75
2021/06/17 05:23:47;;;;;;;12.88;8.98;;;;;;;18.59;63.35;96092.88;5012289;28;20049;-75
2021/06/17 05:26:13;;;;;;;16.55;8.60;;;;;;;18.65;63.22;96094.13;5011705;28;20038;-75
2021/06/17 05:28:39;;;;;;;13.50;8.48;;;;;;;18.69;63.28;96100.50;5011280;28;20057;-75
2021/06/17 05:31:07;;;;;;;14.55;8.02;;;;;;;18.72;62.70;96096.97;5010979;28;20046;-75
2021/06/17 05:33:34;;;;;;;13.90;8.32;;;;;;;18.79;63.28;96102.56;5010971;28;20101;-79
2021/06/17 05:36:02;;;;;;;12.75;7.53;;;;;;;18.84;63.64;96104.19;5009542;28;20049;-80
2021/06/17 05:38:32;;;;;;;11.80;7.60;;;;;;;18.92;62.47;96101.16;5008966;28;20049;-79
2021/06/17 05:40:59;;;;;;;12.30;8.27;;;;;;;19.02;62.45;96103.22;5009248;28;20415;-79
2021/06/17 05:43:26;;;;;;;11.80;7.55;;;;;;;19.00;59.07;96108.34;5008376;28;20049;-79
2021/06/17 05:45:52;;;;;;;13.02;7.28;;;;;;;19.15;59.34;96105.69;5009384;28;20396;-79
2021/06/17 05:48:19;;;;;;;8.80;6.45;;;;;;;19.22;60.50;96105.78;5010396;28;20081;-80
2021/06/17 05:50:46;;;;;;;9.80;6.97;;;;;;;19.31;62.06;96106.25;5011650;28;20069;-76
2021/06/17 05:53:12;;;;;;;9.95;6.55;;;;;;;19.43;58.61;96105.97;5011453;28;20049;-77
2021/06/17 05:55:40;;;;;;;11.82;7.10;;;;;;;19.50;58.99;96111.56;5011747;28;20116;-75
2021/06/17 05:58:07;;;;;;;9.88;6.38;;;;;;;19.56;60.13;96103.72;5010191;28;20038;-76
2021/06/17 06:00:33;;;;;;;8.63;5.75;;;;;;;19.64;61.10;96110.91;5007547;28;20050;-76
2021/06/17 06:03:00;;;;;;;8.18;5.85;;;;;;;19.72;61.40;96109.00;4991932;28;20523;-76
2021/06/17 06:05:26;;;;;;;11.35;5.90;;;;;;;19.80;60.72;96110.66;4991309;28;20520;-76
2021/06/17 06:07:58;;;;;;;9.35;5.85;;;;;;;19.87;60.46;96107.91;5006058;28;20145;-76
2021/06/17 06:10:24;;;;;;;10.50;6.38;;;;;;;19.97;59.75;96109.16;5011071;28;20046;-75
2021/06/17 06:12:52;;;;;;;9.00;6.20;;;;;;;20.05;59.71;96114.38;5011488;28;20041;-76
2021/06/17 06:15:19;;;;;;;11.98;6.13;;;;;;;20.14;57.31;96115.97;5011029;28;20053;-77
2021/06/17 06:17:45;;;;;;;10.77;6.82;;;;;;;20.22;56.90;96106.56;5011253;28;20049;-75
2021/06/17 06:20:13;;;;;;;9.10;6.20;;;;;;;20.30;58.25;96119.22;5010886;28;20512;-77
2021/06/17 06:22:39;;;;;;;12.07;6.78;;;;;;;20.37;57.42;96111.00;5011452;28;20041;-76
2021/06/17 06:25:07;;;;;;;10.18;6.82;;;;;;;20.46;58.27;96105.09;5010895;28;20037;-75
2021/06/17 06:27:33;;;;;;;9.73;5.85;;;;;;;20.50;59.13;96106.72;5011439;28;20045;-76
2021/06/17 06:30:03;;;;;;;12.75;6.65;;;;;;;20.58;56.95;96097.28;5011299;28;20053;-76
2021/06/17 06:32:29;;;;;;;9.75;6.32;;;;;;;20.67;57.34;96109.94;5010886;28;20053;-76
2021/06/17 06:34:57;;;;;;;10.55;6.18;;;;;;;20.75;58.00;96111.56;5011310;28;20049;-75
2021/06/17 06:37:24;;;;;;;9.13;6.20;;;;;;;20.82;56.94;96109.63;5010004;28;20049;-75
2021/06/17 06:39:50;;;;;;;15.57;6.50;;;;;;;20.91;56.27;96109.25;5011222;28;20053;-76
2021/06/17 06:42:17;;;;;;;10.18;6.68;;;;;;;21.02;57.50;96121.13;5009043;28;20050;-75
2021/06/17 06:44:44;;;;;;;10.68;6.00;;;;;;;21.17;56.81;96116.44;5011115;28;20496;-75
2021/06/17 06:47:11;;;;;;;9.10;5.90;;;;;;;21.25;57.79;96112.50;5010521;28;20419;-79
2021/06/17 06:49:38;;;;;;;12.38;6.03;;;;;;;21.31;57.33;96110.97;5011084;28;20042;-78
2021/06/17 06:52:05;;;;;;;13.52;6.13;;;;;;;21.42;57.36;96116.50;5010856;28;20053;-80
2021/06/17 06:54:31;;;;;;;12.25;6.90;;;;;;;21.51;57.38;96113.34;5011050;28;20053;-78
2021/06/17 06:57:01;;;;;;;17.63;7.07;;;;;;;21.58;56.39;96119.69;5009137;28;20041;-79
2021/06/17 06:59:27;;;;;;;10.25;5.65;;;;;;;21.69;56.33;96118.91;5010185;28;20038;-79
2021/06/17 07:01:54;;;;;;;9.32;5.93;;;;;;;21.77;56.90;96114.91;5011077;28;20053;-79
2021/06/17 07:04:22;;;;;;;11.32;6.10;;;;;;;21.84;57.00;96126.03;5010498;28;20050;-79
2021/06/17 07:06:48;;;;;;;6.78;5.60;;;;;;;21.93;56.77;96122.84;5010997;28;20038;-79
2021/06/17 07:09:15;;;;;;;7.97;6.45;;;;;;;22.04;55.08;96113.31;5010321;28;20045;-79
2021/06/17 07:11:41;;;;;;;10.55;6.90;;;;;;;22.10;53.10;96122.84;5010960;28;20046;-79
2021/06/17 07:14:08;;;;;;;9.45;6.75;;;;;;;22.12;53.60;96126.00;5010485;28;20432;-79
2021/06/17 07:16:34;;;;;;;9.90;6.28;;;;;;;22.19;53.82;96121.66;5010838;28;20077;-79
2021/06/17 07:19:05;;;;;;;12.85;6.65;;;;;;;22.26;52.82;96116.09;5013913;28;20046;-79
2021/06/17 07:21:33;;;;;;;13.50;5.72;;;;;;;22.31;54.51;96115.69;5014226;28;20042;-79
2021/06/17 07:24:00;;;;;;;9.00;6.25;;;;;;;22.39;53.35;96122.78;5014445;28;20045;-79
2021/06/17 07:26:27;;;;;;;13.40;6.47;;;;;;;22.44;53.10;96127.91;5014047;28;20046;-78
2021/06/17 07:28:54;;;;;;;8.65;5.68;;;;;;;22.54;53.78;96129.09;5014422;28;20045;-79
2021/06/17 07:31:21;;;;;;;10.50;5.88;;;;;;;22.62;54.08;96137.00;5013835;28;20056;-78
2021/06/17 07:33:47;;;;;;;13.77;6.43;;;;;;;22.71;54.50;96138.53;5014077;28;20045;-78
2021/06/17 07:36:14;;;;;;;10.20;6.40;;;;;;;22.82;53.49;96144.84;5013858;28;20055;-78
2021/06/17 07:38:42;;;;;;;15.38;6.47;;;;;;;22.91;53.37;96142.44;5014169;28;20088;-78
2021/06/17 07:41:09;;;;;;;9.50;6.45;;;;;;;22.99;51.78;96137.66;5013572;28;20519;-80
2021/06/17 07:43:36;;;;;;;11.32;5.85;;;;;;;23.06;52.83;96137.63;5013883;28;20046;-80
2021/06/17 07:46:04;;;;;;;8.98;6.40;;;;;;;23.14;51.31;96134.41;5013765;28;20403;-81
2021/06/17 07:48:30;;;;;;;12.00;5.80;;;;;;;23.25;53.71;96139.13;5013832;28;20038;-79
2021/06/17 07:50:57;;;;;;;10.88;6.35;;;;;;;23.33;52.79;96144.19;5014000;28;20058;-79
2021/06/17 07:53:23;;;;;;;9.55;6.57;;;;;;;23.40;53.39;96143.38;5013364;28;20050;-79
2021/06/17 07:55:51;;;;;;;12.25;6.60;;;;;;;23.52;54.89;96148.47;5013359;28;20503;-79
2021/06/17 07:58:18;;;;;;;10.10;6.57;;;;;;;23.56;50.74;96143.66;5013213;28;20042;-81
2021/06/17 08:00:44;;;;;;;10.20;6.85;;;;;;;23.71;51.96;96143.59;5013657;28;20046;-79
2021/06/17 08:03:11;;;;;;;12.63;6.50;;;;;;;23.88;51.52;96149.00;5013454;28;20053;-79
2021/06/17 08:05:37;;;;;;;8.55;6.32;;;;;;;24.05;53.49;96147.28;5013680;28;20050;-79
2021/06/17 08:08:07;;;;;;;12.27;6.25;;;;;;;24.21;50.80;96150.31;5013255;28;20523;-79
2021/06/17 08:10:33;;;;;;;9.32;5.90;;;;;;;24.38;49.94;96153.34;5013500;28;20556;-79
2021/06/17 08:13:02;;;;;;;9.68;5.20;;;;;;;24.57;50.78;96152.75;5013594;28;20528;-79
2021/06/17 08:15:29;;;;;;;13.10;6.32;;;;;;;25.23;52.38;96154.38;5013207;28;20056;-81
2021/06/17 08:17:55;;;;;;;9.15;5.40;;;;;;;26.82;45.28;96152.19;5013329;28;20042;-81
2021/06/17 08:20:22;;;;;;;13.38;5.90;;;;;;;28.23;41.61;96143.84;5013096;28;20056;-80
2021/06/17 08:22:49;;;;;;;12.05;5.70;;;;;;;29.46;42.65;96140.06;5013313;28;20514;-81
2021/06/17 08:25:15;;;;;;;10.68;5.80;;;;;;;30.50;37.91;96142.34;5013055;28;20045;-81
2021/06/17 08:27:42;;;;;;;12.10;5.32;;;;;;;31.31;34.41;96135.78;5013330;28;20049;-81
2021/06/17 08:30:14;;;;;;;11.55;5.20;;;;;;;32.06;35.08;96130.03;5011622;28;20042;-78
2021/06/17 08:32:41;;;;;;;10.03;5.10;;;;;;;32.62;31.31;96136.56;5013212;28;20096;-80
2021/06/17 08:35:08;;;;;;;10.73;5.15;;;;;;;32.87;29.95;96132.66;5012549;28;20346;-80
2021/06/17 08:37:35;;;;;;;12.25;5.10;;;;;;;32.78;30.11;96127.78;5012921;28;20109;-81
2021/06/17 08:40:02;;;;;;;7.90;4.95;;;;;;;32.95;30.18;96131.13;5012875;28;20045;-80
2021/06/17 08:42:30;;;;;;;10.93;5.32;;;;;;;33.38;29.67;96129.16;5012523;28;20041;-80
2021/06/17 08:44:58;;;;;;;8.80;4.30;;;;;;;33.70;28.69;96133.31;5012875;28;20048;-80
2021/06/17 08:47:27;;;;;;;9.90;4.88;;;;;;;33.89;29.86;96123.50;5012389;28;20405;-80
2021/06/17 08:49:54;;;;;;;9.55;4.47;;;;;;;34.07;30.92;96125.47;5012674;28;20400;-80
2021/06/17 08:52:21;;;;;;;8.25;4.75;;;;;;;34.14;31.17;96130.78;5012290;28;20428;-80
2021/06/17 08:54:48;;;;;;;10.30;4.60;;;;;;;34.17;29.45;96134.66;5012593;28;20496;-80
2021/06/17 08:57:15;;;;;;;10.90;5.32;;;;;;;33.94;30.12;96124.91;5011795;28;20046;-81
2021/06/17 08:59:45;;;;;;;12.98;4.82;;;;;;;33.54;32.40;96130.84;5012512;28;20416;-82
2021/06/17 09:02:12;;;;;;;11.68;5.18;;;;;;;33.00;34.02;96133.31;5011994;28;20050;-81
2021/06/17 09:04:40;;;;;;;11.43;4.53;;;;;;;32.56;33.73;96132.81;5012466;28;20053;-81
2021/06/17 09:07:09;;;;;;;13.18;5.65;;;;;;;32.31;34.27;96134.63;5011929;28;20049;-81
2021/06/17 09:09:41;;;;;;;12.65;5.05;;;;;;;32.07;37.23;96130.84;5012415;28;20515;-81
2021/06/17 09:12:10;;;;;;;15.02;5.00;;;;;;;31.89;35.92;96129.50;5011846;28;20045;-80
2021/06/17 09:14:37;;;;;;;7.60;4.40;;;;;;;31.80;34.28;96135.09;5012495;28;20042;-80
2021/06/17 09:17:06;;;;;;;10.20;4.80;;;;;;;31.74;35.90;96128.50;5011725;28;20041;-79
2021/06/17 09:19:38;;;;;;;10.65;4.90;;;;;;;31.43;35.29;96123.69;5012196;28;20148;-79
2021/06/17 09:22:08;;;;;;;9.18;4.88;;;;;;;31.19;35.62;96131.00;5013035;28;20061;-79
2021/06/17 09:24:36;;;;;;;11.50;4.70;;;;;;;31.11;36.00;96126.88;5012298;28;20057;-78
2021/06/17 09:27:28;;;;;;;14.25;4.68;;;;;;;31.03;34.10;96122.78;5012045;28;20037;-77
2021/06/17 09:29:56;;;;;;;7.30;4.20;;;;;;;30.93;34.11;96125.53;5012362;28;20440;-80
2021/06/17 09:32:25;;;;;;;11.27;6.28;;;;;;;30.70;34.84;96123.19;5012142;28;20046;-80
2021/06/17 09:34:52;;;;;;;11.02;5.82;;;;;;;30.61;37.11;96126.66;5012805;28;20054;-80
2021/06/17 09:37:34;;;;;;;8.65;4.63;;;;;;;30.70;38.10;96128.81;5011760;28;20041;-79
2021/06/17 09:40:20;;;;;;;9.13;4.45;;;;;;;30.82;35.60;96125.16;5012145;28;20061;-80
2021/06/17 09:42:47;;;;;;;9.95;4.70;;;;;;;30.81;37.86;96126.41;5011995;28;20041;-83
2021/06/17 09:45:17;;;;;;;12.68;4.97;;;;;;;30.81;36.44;96128.41;5011062;28;20076;-80
2021/06/17 09:47:45;;;;;;;8.63;4.93;;;;;;;30.62;35.93;96121.84;5011553;28;20054;-80
2021/06/17 09:50:20;;;;;;;12.07;5.00;;;;;;;30.71;36.61;96127.56;5010248;28;20045;-80
2021/06/17 09:52:48;;;;;;;11.85;4.13;;;;;;;30.82;38.07;96125.16;5011730;28;20041;-80
2021/06/17 09:55:35;;;;;;;12.68;4.72;;;;;;;30.94;37.53;96117.88;5009888;28;20041;-81
2021/06/17 09:58:01;;;;;;;14.40;4.82;;;;;;;31.01;37.68;96128.06;5011811;28;20038;-80
2021/06/17 10:00:28;;;;;;;14.80;4.72;;;;;;;31.14;37.30;96131.59;5010165;28;20038;-83
2021/06/17 10:02:55;;;;;;;10.70;4.75;;;;;;;31.14;33.46;96134.41;5011011;28;20049;-81
2021/06/17 10:42:29;;;;;;;7.85;3.03;;;;;;;31.41;30.40;96131.78;5007025;28;20052;-80
2021/06/17 10:44:58;;;;;;;7.63;2.90;;;;;;;31.37;31.92;96142.38;5009685;28;20130;-79
2021/06/17 10:48:07;;;;;;;7.53;3.75;;;;;;;31.44;26.03;96136.50;5010032;28;20070;-79
2021/06/17 10:51:06;;;;;;;6.70;2.70;;;;;;;31.50;30.99;96135.91;5010766;28;20060;-79
2021/06/17 10:53:50;;;;;;;7.03;2.70;;;;;;;31.39;24.56;96134.28;5009642;28;20034;-78
2021/06/17 10:56:19;;;;;;;8.43;3.63;;;;;;;31.21;28.21;96122.88;5014096;28;20041;-80
2021/06/17 10:59:06;;;;;;;6.88;2.60;;;;;;;31.19;29.29;96125.38;5014259;28;20666;-81
2021/06/17 11:01:44;;;;;;;9.57;4.00;;;;;;;31.24;29.71;96132.44;5013872;28;20427;-78
2021/06/17 11:04:17;;;;;;;11.52;3.25;;;;;;;31.27;30.29;96126.72;5014298;28;20077;-79
2021/06/17 11:07:15;;;;;;;11.35;3.97;;;;;;;31.33;31.13;96127.69;5013222;28;20121;-76
2021/06/17 11:10:05;;;;;;;9.35;4.07;;;;;;;31.34;30.37;96123.63;5014269;28;20038;-77
2021/06/17 11:12:54;;;;;;;6.72;2.95;;;;;;;31.33;32.60;96121.28;5013573;28;20057;-80
2021/06/17 11:15:45;;;;;;;10.30;4.40;;;;;;;31.27;29.71;96115.47;5012981;28;20046;-77
2021/06/17 11:18:14;;;;;;;7.30;4.00;;;;;;;31.32;32.24;96117.69;5013639;28;20046;-78
2021/06/17 11:20:43;;;;;;;9.85;3.55;;;;;;;31.40;31.84;96113.34;5013051;28;20042;-76
2021/06/17 11:23:11;;;;;;;6.72;3.30;;;;;;;31.40;30.91;96124.59;5013596;28;20096;-75
2021/06/17 11:25:40;;;;;;;9.30;2.92;;;;;;;31.44;26.55;96114.00;5013358;28;20058;-77
2021/06/17 11:28:09;;;;;;;6.95;3.25;;;;;;;31.50;25.18;96108.53;5013192;28;20044;-77
2021/06/17 11:31:02;;;;;;;5.40;2.45;;;;;;;31.53;28.94;96109.63;5013592;28;20049;-77
2021/06/17 11:33:44;;;;;;;5.60;2.47;;;;;;;31.54;22.71;96099.97;5010199;28;20033;-76
2021/06/17 11:36:14;;;;;;;7.77;2.93;;;;;;;31.43;27.01;96098.38;5013779;28;20046;-79
2021/06/17 11:38:41;;;;;;;4.90;2.50;;;;;;;31.36;25.43;96089.41;5013028;28;20050;-80
2021/06/17 11:41:16;;;;;;;10.50;4.50;;;;;;;31.37;27.15;96086.13;5012613;28;20048;-77
2021/06/17 11:43:43;;;;;;;9.32;3.22;;;;;;;31.40;29.43;96090.84;5013105;28;20046;-78
2021/06/17 11:46:21;;;;;;;9.15;4.30;;;;;;;31.40;29.00;96090.84;5011732;28;20504;-77
2021/06/17 11:48:55;;;;;;;6.60;3.60;;;;;;;31.40;30.47;96090.84;5013268;28;20404;-78
2021/06/17 11:51:22;;;;;;;9.38;3.65;;;;;;;31.38;28.01;96082.09;5011923;28;20541;-77
2021/06/17 11:53:50;;;;;;;9.82;4.00;;;;;;;31.39;28.57;96082.88;5013719;28;20065;-79
2021/06/17 11:56:31;;;;;;;6.55;3.80;;;;;;;31.28;30.62;96083.28;5011836;28;20492;-77
2021/06/17 11:59:16;;;;;;;9.30;3.72;;;;;;;31.28;31.63;96074.84;5013214;28;20045;-77
2021/06/17 12:02:05;;;;;;;4.97;2.72;;;;;;;31.32;28.27;96086.75;5013029;28;20045;-77
2021/06/17 12:04:48;;;;;;;8.77;3.63;;;;;;;31.31;28.24;96082.34;5005912;28;20133;-76
2021/06/17 12:07:15;;;;;;;4.53;2.42;;;;;;;31.30;27.79;96083.59;5022434;28;20041;-77
2021/06/17 12:09:42;;;;;;;9.68;2.88;;;;;;;31.28;24.92;96066.41;5012330;28;20408;-79
2021/06/17 12:12:19;;;;;;;6.80;2.83;;;;;;;31.25;29.28;96060.88;5012303;28;20042;-77
2021/06/17 12:14:47;;;;;;;7.35;2.95;;;;;;;31.25;29.05;96069.31;5012522;28;20050;-80
2021/06/17 12:17:28;;;;;;;8.30;3.67;;;;;;;31.23;28.90;96069.78;5012116;28;20046;-80
2021/06/17 12:19:55;;;;;;;7.30;3.20;;;;;;;31.23;28.00;96075.41;5012688;28;20049;-78
2021/06/17 12:22:21;;;;;;;7.03;3.17;;;;;;;31.24;29.91;96067.75;5011827;28;20551;-80
2021/06/17 12:24:48;;;;;;;5.25;2.63;;;;;;;31.25;29.12;96060.88;5013091;28;20056;-76